Akron, Michigan
Current Conditions -  °F | °C
As of 11:35 PM on Saturday 25 Oct 2014 (Local Time) from KCFS Reporting Station
Clear Clear  
Wind Chill: 42°   Ceiling: Unl
Heat Index: 45°   Visibility: 10mi
Dew Point: 35°   Wind: 6mph
Humidity: 68%   Direction: 280°W
Pressure: 29.8"   Gusts: NA
Location:  43.57°N, 83.51°W
Report Text: KCFS 260335Z AUTO 28005KT 10SM CLR 07/02 A2980 RMK AO2 T00720017
Loading
Personal Weather Stations






























Interactive Weather Map New forecast layout! Learn more

10-Day Weather Forecast

Advertisements
Track Severe Weather on mobile